Time,TemperatureF,DewpointF,PressureIn,WindDirection,WindDirectionDegrees,WindSpeedMPH,WindSpeedGustMPH,Humidity,HourlyPrecipIn,Conditions,Clouds,dailyrainin,SoftwareType,DateUTC
2013-07-05 00:03:00,70.3,70.0,30.13,NNW,342,0.0,0.0,98,0.00,,,0.00,weatherlink.com 1.10,2013-07-05 04:03:00,
2013-07-05 00:21:00,70.4,70.0,30.12,NNW,342,0.0,0.0,98,0.00,,,0.00,weatherlink.com 1.10,2013-07-05 04:21:00,
2013-07-05 00:41:00,70.2,70.0,30.12,ENE,64,0.0,0.0,98,0.00,,,0.00,weatherlink.com 1.10,2013-07-05 04:41:00,
2013-07-05 00:59:00,70.6,70.0,30.13,East,84,0.0,4.0,98,0.00,,,0.00,weatherlink.com 1.10,2013-07-05 04:59:00,
2013-07-05 01:18:00,71.1,70.0,30.12,East,86,1.0,5.0,96,0.00,,,0.00,weatherlink.com 1.10,2013-07-05 05:18:00,
2013-07-05 01:36:00,71.2,69.0,30.13,NE,56,0.0,3.0,94,0.00,,,0.00,weatherlink.com 1.10,2013-07-05 05:36:00,
2013-07-05 01:54:00,70.9,69.0,30.13,NNE,30,3.0,6.0,94,0.01,,,0.01,weatherlink.com 1.10,2013-07-05 05:54:00,
2013-07-05 02:12:00,71.6,69.0,30.13,NNE,22,0.0,6.0,90,0.01,,,0.01,weatherlink.com 1.10,2013-07-05 06:12:00,
2013-07-05 02:32:00,71.8,68.0,30.12,ENE,67,1.0,5.0,88,0.01,,,0.01,weatherlink.com 1.10,2013-07-05 06:32:00,
2013-07-05 02:50:00,71.3,68.0,30.12,ENE,61,0.0,2.0,89,0.00,,,0.01,weatherlink.com 1.10,2013-07-05 06:50:00,
2013-07-05 03:08:00,70.5,68.0,30.12,ENE,60,1.0,2.0,90,0.00,,,0.01,weatherlink.com 1.10,2013-07-05 07:08:00,
2013-07-05 03:28:00,70.7,67.0,30.12,East,86,0.0,5.0,89,0.00,,,0.01,weatherlink.com 1.10,2013-07-05 07:28:00,
2013-07-05 03:46:00,71.3,67.0,30.12,NE,42,0.0,5.0,87,0.00,,,0.01,weatherlink.com 1.10,2013-07-05 07:46:00,
2013-07-05 04:05:00,71.7,67.0,30.12,NE,50,1.0,6.0,86,0.00,,,0.01,weatherlink.com 1.10,2013-07-05 08:05:00,
2013-07-05 04:23:00,71.9,67.0,30.12,ENE,65,2.0,4.0,84,0.00,,,0.01,weatherlink.com 1.10,2013-07-05 08:23:00,
2013-07-05 04:41:00,72.2,67.0,30.12,NE,47,1.0,3.0,83,0.00,,,0.01,weatherlink.com 1.10,2013-07-05 08:41:00,
2013-07-05 05:01:00,72.4,67.0,30.12,NE,46,0.0,4.0,83,0.00,,,0.01,weatherlink.com 1.10,2013-07-05 09:01:00,
2013-07-05 05:19:00,72.5,67.0,30.12,NE,46,0.0,5.0,82,0.00,,,0.01,weatherlink.com 1.10,2013-07-05 09:19:00,
2013-07-05 05:37:00,72.6,67.0,30.12,ENE,64,0.0,4.0,82,0.00,,,0.01,weatherlink.com 1.10,2013-07-05 09:37:00,
2013-07-05 05:56:00,72.6,67.0,30.12,NE,51,0.0,4.0,82,0.00,,,0.01,weatherlink.com 1.10,2013-07-05 09:56:00,
2013-07-05 06:14:00,72.5,67.0,30.12,NE,42,1.0,2.0,82,0.00,,,0.01,weatherlink.com 1.10,2013-07-05 10:14:00,
2013-07-05 06:34:00,72.6,67.0,30.12,ENE,72,1.0,4.0,82,0.00,,,0.01,weatherlink.com 1.10,2013-07-05 10:34:00,
2013-07-05 07:10:00,72.6,67.0,30.13,NNE,23,0.0,2.0,83,0.00,,,0.01,weatherlink.com 1.10,2013-07-05 11:10:00,
2013-07-05 07:28:00,73.3,68.0,30.12,NNW,342,1.0,2.0,83,0.00,,,0.01,weatherlink.com 1.10,2013-07-05 11:28:00,
2013-07-05 07:48:00,75.1,69.0,30.12,NE,49,2.0,4.0,80,0.00,,,0.01,weatherlink.com 1.10,2013-07-05 11:48:00,
2013-07-05 08:06:00,76.3,69.0,30.13,ENE,63,2.0,4.0,77,0.00,,,0.01,weatherlink.com 1.10,2013-07-05 12:06:00,
2013-07-05 08:24:00,76.3,69.0,30.14,ENE,64,1.0,3.0,79,0.00,,,0.01,weatherlink.com 1.10,2013-07-05 12:24:00,
2013-07-05 08:44:00,76.5,69.0,30.14,NE,38,2.0,4.0,78,0.00,,,0.01,weatherlink.com 1.10,2013-07-05 12:44:00,
2013-07-05 09:02:00,77.2,69.0,30.14,NE,45,4.0,5.0,76,0.00,,,0.01,weatherlink.com 1.10,2013-07-05 13:02:00,
2013-07-05 09:20:00,78.2,70.0,30.14,NE,49,1.0,4.0,75,0.00,,,0.01,weatherlink.com 1.10,2013-07-05 13:20:00,
2013-07-05 09:40:00,78.4,70.0,30.14,ENE,58,2.0,3.0,75,0.00,,,0.01,weatherlink.com 1.10,2013-07-05 13:40:00,
2013-07-05 09:58:00,80.1,70.0,30.14,NE,53,4.0,4.0,72,0.00,,,0.01,weatherlink.com 1.10,2013-07-05 13:58:00,
2013-07-05 10:16:00,82.1,70.0,30.14,NE,49,3.0,6.0,66,0.00,,,0.01,weatherlink.com 1.10,2013-07-05 14:16:00,
2013-07-05 10:55:00,79.3,70.0,30.14,NE,56,2.0,4.0,73,0.00,,,0.01,weatherlink.com 1.10,2013-07-05 14:55:00,
2013-07-05 11:13:00,81.8,71.0,30.14,East,89,4.0,6.0,70,0.00,,,0.01,weatherlink.com 1.10,2013-07-05 15:13:00,
2013-07-05 11:31:00,82.6,71.0,30.14,NNE,26,2.0,7.0,68,0.00,,,0.01,weatherlink.com 1.10,2013-07-05 15:31:00,
2013-07-05 11:49:00,82.9,71.0,30.15,ENE,77,4.0,9.0,68,0.00,,,0.01,weatherlink.com 1.10,2013-07-05 15:49:00,
2013-07-05 12:09:00,83.1,71.0,30.15,NNE,15,5.0,8.0,66,0.00,,,0.01,weatherlink.com 1.10,2013-07-05 16:09:00,
2013-07-05 12:27:00,81.4,69.0,30.15,NE,37,5.0,10.0,67,0.00,,,0.01,weatherlink.com 1.10,2013-07-05 16:27:00,
2013-07-05 12:45:00,83.2,70.0,30.14,NE,41,7.0,10.0,65,0.00,,,0.01,weatherlink.com 1.10,2013-07-05 16:45:00,
2013-07-05 13:03:00,83.6,71.0,30.14,ENE,70,2.0,7.0,66,0.00,,,0.01,weatherlink.com 1.10,2013-07-05 17:03:00,
2013-07-05 13:23:00,83.8,70.0,30.13,East,84,3.0,8.0,64,0.00,,,0.01,weatherlink.com 1.10,2013-07-05 17:23:00,
2013-07-05 13:41:00,85.5,71.0,30.12,ENE,67,1.0,9.0,62,0.00,,,0.01,weatherlink.com 1.10,2013-07-05 17:41:00,
2013-07-05 13:59:00,85.1,71.0,30.12,East,94,3.0,12.0,63,0.00,,,0.01,weatherlink.com 1.10,2013-07-05 17:59:00,
2013-07-05 14:19:00,85.3,70.0,30.11,NE,49,6.0,11.0,60,0.00,,,0.01,weatherlink.com 1.10,2013-07-05 18:19:00,
2013-07-05 14:37:00,85.3,68.0,30.11,South,187,1.0,13.0,57,0.00,,,0.01,weatherlink.com 1.10,2013-07-05 18:37:00,
2013-07-05 14:55:00,85.1,69.0,30.11,NE,44,3.0,11.0,59,0.00,,,0.01,weatherlink.com 1.10,2013-07-05 18:55:00,
2013-07-05 15:15:00,85.4,69.0,30.10,East,84,9.0,11.0,58,0.00,,,0.01,weatherlink.com 1.10,2013-07-05 19:15:00,
2013-07-05 15:33:00,84.3,70.0,30.10,ENE,67,2.0,8.0,62,0.00,,,0.01,weatherlink.com 1.10,2013-07-05 19:33:00,
2013-07-05 15:51:00,85.5,70.0,30.09,ENE,77,1.0,7.0,61,0.00,,,0.01,weatherlink.com 1.10,2013-07-05 19:51:00,
2013-07-05 16:11:00,86.1,70.0,30.09,SSW,211,3.0,7.0,58,0.00,,,0.01,weatherlink.com 1.10,2013-07-05 20:11:00,
2013-07-05 16:29:00,86.4,70.0,30.08,SE,124,1.0,8.0,59,0.00,,,0.01,weatherlink.com 1.10,2013-07-05 20:29:00,
2013-07-05 16:47:00,87.1,68.0,30.08,NE,56,2.0,6.0,54,0.00,,,0.01,weatherlink.com 1.10,2013-07-05 20:47:00,
2013-07-05 17:07:00,84.4,71.0,30.08,NE,56,3.0,7.0,64,0.00,,,0.01,weatherlink.com 1.10,2013-07-05 21:07:00,
2013-07-05 17:25:00,83.4,70.0,30.08,ENE,58,4.0,10.0,64,0.00,,,0.01,weatherlink.com 1.10,2013-07-05 21:25:00,
2013-07-05 17:43:00,83.4,72.0,30.08,SSE,158,5.0,5.0,68,0.00,,,0.01,weatherlink.com 1.10,2013-07-05 21:43:00,
2013-07-05 18:01:00,83.5,71.0,30.08,East,98,1.0,8.0,67,0.00,,,0.01,weatherlink.com 1.10,2013-07-05 22:01:00,
2013-07-05 18:21:00,84.1,71.0,30.07,NE,56,2.0,8.0,65,0.00,,,0.01,weatherlink.com 1.10,2013-07-05 22:21:00,
2013-07-05 18:39:00,83.7,71.0,30.07,ENE,64,1.0,7.0,65,0.00,,,0.01,weatherlink.com 1.10,2013-07-05 22:39:00,
2013-07-05 18:57:00,83.9,71.0,30.08,ENE,64,3.0,6.0,65,0.00,,,0.01,weatherlink.com 1.10,2013-07-05 22:57:00,
2013-07-05 19:17:00,84.2,71.0,30.07,ENE,64,2.0,2.0,65,0.00,,,0.01,weatherlink.com 1.10,2013-07-05 23:17:00,
2013-07-05 19:35:00,83.9,71.0,30.08,ENE,63,2.0,3.0,65,0.00,,,0.01,weatherlink.com 1.10,2013-07-05 23:35:00,
2013-07-05 19:53:00,83.1,70.0,30.09,NE,46,2.0,4.0,65,0.00,,,0.01,weatherlink.com 1.10,2013-07-05 23:53:00,
2013-07-05 20:13:00,80.8,70.0,30.09,ENE,70,0.0,4.0,70,0.00,,,0.01,weatherlink.com 1.10,2013-07-06 00:13:00,
2013-07-05 20:31:00,79.7,70.0,30.09,ENE,70,0.0,1.0,72,0.00,,,0.01,weatherlink.com 1.10,2013-07-06 00:31:00,
2013-07-05 20:49:00,77.8,69.0,30.10,ENE,69,0.0,0.0,75,0.00,,,0.01,weatherlink.com 1.10,2013-07-06 00:49:00,
2013-07-05 21:07:00,76.4,69.0,30.10,ENE,75,0.0,1.0,77,0.00,,,0.01,weatherlink.com 1.10,2013-07-06 01:07:00,
2013-07-05 21:27:00,75.7,69.0,30.10,NE,54,0.0,2.0,79,0.00,,,0.01,weatherlink.com 1.10,2013-07-06 01:27:00,
2013-07-05 21:45:00,74.9,68.0,30.10,NE,54,0.0,1.0,80,0.00,,,0.01,weatherlink.com 1.10,2013-07-06 01:45:00,
2013-07-05 22:03:00,74.6,68.0,30.11,ENE,60,0.0,1.0,81,0.00,,,0.01,weatherlink.com 1.10,2013-07-06 02:03:00,
2013-07-05 22:23:00,73.7,68.0,30.11,ENE,60,0.0,0.0,83,0.00,,,0.01,weatherlink.com 1.10,2013-07-06 02:23:00,
2013-07-05 22:41:00,72.9,68.0,30.12,ENE,60,0.0,0.0,85,0.00,,,0.01,weatherlink.com 1.10,2013-07-06 02:41:00,
2013-07-05 22:59:00,72.5,68.0,30.12,ENE,60,0.0,0.0,86,0.00,,,0.01,weatherlink.com 1.10,2013-07-06 02:59:00,
2013-07-05 23:19:00,72.2,68.0,30.11,ENE,60,0.0,0.0,87,0.00,,,0.01,weatherlink.com 1.10,2013-07-06 03:19:00,
2013-07-05 23:37:00,71.6,68.0,30.12,ENE,60,0.0,0.0,89,0.00,,,0.01,weatherlink.com 1.10,2013-07-06 03:37:00,
2013-07-05 23:55:00,71.2,68.0,30.12,ENE,60,0.0,0.0,90,0.00,,,0.01,weatherlink.com 1.10,2013-07-06 03:55:00,